Time;durP1;ratioP1;P1;durP2;ratioP2;P2;SDS_P1;SDS_P2;PMS_P1;PMS_P2;Temp;Humidity;BMP_temperature;BMP_pressure;BME280_temperature;BME280_humidity;BME280_pressure;Samples;Min_cycle;Max_cycle;Signal;HPM_P1;HPM_P2
2021/06/18 00:01:35;;;;;;;9.10;8.40;;;;;;;;;;5113845;28;20459;-58
2021/06/18 00:04:02;;;;;;;12.20;9.17;;;;;;;;;;5113829;28;20500;-57
2021/06/18 00:06:30;;;;;;;9.13;8.30;;;;;;;;;;5113829;28;20850;-57
2021/06/18 00:08:57;;;;;;;8.13;7.37;;;;;;;;;;5113715;28;20546;-59
2021/06/18 00:11:24;;;;;;;9.33;7.33;;;;;;;;;;5113747;28;20474;-58
2021/06/18 00:13:53;;;;;;;8.40;7.70;;;;;;;;;;5113423;28;20472;-58
2021/06/18 00:16:20;;;;;;;8.17;7.37;;;;;;;;;;5113759;28;20447;-58
2021/06/18 00:18:47;;;;;;;8.27;7.57;;;;;;;;;;5113981;28;20445;-58
2021/06/18 00:21:14;;;;;;;7.50;6.70;;;;;;;;;;5114312;28;20510;-58
2021/06/18 00:23:42;;;;;;;8.23;7.53;;;;;;;;;;5115795;28;20855;-58
2021/06/18 00:26:09;;;;;;;7.97;7.17;;;;;;;;;;5118880;28;20447;-58
2021/06/18 00:28:36;;;;;;;8.37;7.60;;;;;;;;;;5118595;28;20514;-58
2021/06/18 00:31:05;;;;;;;8.20;7.40;;;;;;;;;;5118121;28;20469;-58
2021/06/18 00:33:32;;;;;;;7.40;6.80;;;;;;;;;;5118082;28;20469;-58
2021/06/18 00:35:59;;;;;;;13.80;7.97;;;;;;;;;;5117886;28;20456;-58
2021/06/18 00:38:26;;;;;;;8.80;7.13;;;;;;;;;;5117855;28;20454;-58
2021/06/18 00:40:54;;;;;;;8.47;7.77;;;;;;;;;;5117233;28;20898;-58
2021/06/18 00:43:21;;;;;;;7.60;7.00;;;;;;;;;;5117502;28;20443;-57
2021/06/18 00:45:48;;;;;;;8.10;7.40;;;;;;;;;;5117784;28;20442;-58
2021/06/18 00:48:17;;;;;;;7.33;6.73;;;;;;;;;;5117389;28;20450;-58
2021/06/18 00:50:45;;;;;;;7.67;7.03;;;;;;;;;;5117460;28;20518;-58
2021/06/18 00:53:12;;;;;;;8.13;7.10;;;;;;;;;;5117425;28;20594;-58
2021/06/18 00:55:39;;;;;;;7.47;6.60;;;;;;;;;;5117502;28;20510;-58
2021/06/18 00:58:08;;;;;;;7.93;7.30;;;;;;;;;;5117085;28;20447;-59
2021/06/18 01:00:35;;;;;;;7.83;7.20;;;;;;;;;;5117361;28;20492;-58
2021/06/18 01:03:02;;;;;;;10.10;7.43;;;;;;;;;;5116912;28;20498;-59
2021/06/18 01:05:31;;;;;;;8.73;7.90;;;;;;;;;;5116846;28;20453;-58
2021/06/18 01:08:07;;;;;;;7.20;6.60;;;;;;;;;;5116891;28;20445;-59
2021/06/18 01:10:38;;;;;;;7.63;7.03;;;;;;;;;;5116693;28;20976;-59
2021/06/18 01:13:09;;;;;;;8.70;7.10;;;;;;;;;;5117030;28;20462;-58
2021/06/18 01:15:43;;;;;;;8.33;6.80;;;;;;;;;;5116952;28;20487;-58
2021/06/18 01:18:15;;;;;;;8.10;7.30;;;;;;;;;;5116901;28;20429;-58
2021/06/18 01:20:57;;;;;;;7.57;6.80;;;;;;;;;;5116533;28;20549;-58
2021/06/18 01:23:27;;;;;;;7.53;6.80;;;;;;;;;;5116856;28;20487;-59
2021/06/18 01:26:01;;;;;;;8.97;8.10;;;;;;;;;;5117349;28;20449;-59
2021/06/18 01:28:35;;;;;;;10.13;7.70;;;;;;;;;;5116808;28;20440;-58
2021/06/18 01:31:03;;;;;;;9.20;8.30;;;;;;;;;;5116525;28;20527;-58
2021/06/18 01:33:31;;;;;;;8.63;7.97;;;;;;;;;;5116511;28;20483;-58
2021/06/18 01:36:00;;;;;;;8.67;7.80;;;;;;;;;;5115809;28;21003;-58
2021/06/18 01:38:29;;;;;;;9.67;8.87;;;;;;;;;;5117307;28;20457;-59
2021/06/18 01:40:59;;;;;;;8.70;7.70;;;;;;;;;;5116519;28;20476;-58
2021/06/18 01:43:28;;;;;;;9.30;8.43;;;;;;;;;;5117844;28;20918;-59
2021/06/18 01:45:57;;;;;;;10.37;9.23;;;;;;;;;;5116458;28;20513;-58
2021/06/18 01:48:26;;;;;;;11.20;10.20;;;;;;;;;;5116706;28;20498;-59
2021/06/18 01:50:53;;;;;;;10.60;9.50;;;;;;;;;;5116561;28;20472;-57
2021/06/18 01:53:22;;;;;;;11.17;10.13;;;;;;;;;;5116374;28;20495;-59
2021/06/18 01:55:51;;;;;;;10.50;9.47;;;;;;;;;;5116610;28;20445;-58
2021/06/18 01:58:19;;;;;;;10.60;9.30;;;;;;;;;;5116130;28;20506;-59
2021/06/18 02:00:48;;;;;;;11.20;10.10;;;;;;;;;;5116423;28;20529;-59
2021/06/18 02:03:18;;;;;;;10.50;9.63;;;;;;;;;;5116209;28;20440;-58
2021/06/18 02:05:46;;;;;;;11.13;10.03;;;;;;;;;;5116459;28;20443;-59
2021/06/18 02:08:14;;;;;;;15.17;10.23;;;;;;;;;;5116647;28;20445;-59
2021/06/18 02:10:43;;;;;;;10.97;9.83;;;;;;;;;;5116495;28;20514;-58
2021/06/18 02:13:11;;;;;;;12.63;11.20;;;;;;;;;;5116247;28;20472;-59
2021/06/18 02:15:39;;;;;;;10.67;9.77;;;;;;;;;;5115458;28;20997;-58
2021/06/18 02:18:08;;;;;;;10.53;9.60;;;;;;;;;;5115484;28;20448;-58
2021/06/18 02:20:37;;;;;;;10.87;9.97;;;;;;;;;;5115361;28;20475;-58
2021/06/18 02:23:04;;;;;;;10.73;9.73;;;;;;;;;;5115633;28;20439;-59
2021/06/18 02:25:32;;;;;;;10.80;9.90;;;;;;;;;;5115595;28;20455;-58
2021/06/18 02:28:00;;;;;;;11.97;10.90;;;;;;;;;;5115197;28;20512;-58
2021/06/18 02:30:28;;;;;;;10.00;8.73;;;;;;;;;;5115192;28;20520;-58
2021/06/18 02:32:57;;;;;;;11.80;10.40;;;;;;;;;;5114968;28;20456;-58
2021/06/18 02:35:24;;;;;;;10.60;9.60;;;;;;;;;;5115055;28;20500;-58
2021/06/18 02:37:53;;;;;;;12.83;10.17;;;;;;;;;;5115107;28;20495;-58
2021/06/18 02:40:20;;;;;;;10.20;9.23;;;;;;;;;;5114792;28;20490;-58
2021/06/18 02:42:48;;;;;;;10.23;9.27;;;;;;;;;;5115244;28;20786;-58
2021/06/18 02:45:15;;;;;;;10.23;9.13;;;;;;;;;;5114842;28;20443;-57
2021/06/18 02:47:45;;;;;;;13.47;9.93;;;;;;;;;;5114065;28;20447;-59
2021/06/18 02:50:15;;;;;;;10.10;9.10;;;;;;;;;;5115226;28;20471;-58
2021/06/18 02:52:44;;;;;;;10.13;9.10;;;;;;;;;;5115057;28;20443;-58
2021/06/18 02:55:14;;;;;;;10.60;9.70;;;;;;;;;;5114967;28;20546;-59
2021/06/18 02:57:49;;;;;;;10.30;9.43;;;;;;;;;;5114985;28;20427;-58
2021/06/18 03:00:17;;;;;;;11.10;10.10;;;;;;;;;;5114926;28;20474;-59
2021/06/18 03:02:47;;;;;;;11.07;10.10;;;;;;;;;;5114773;28;20444;-58
2021/06/18 03:05:16;;;;;;;9.77;8.93;;;;;;;;;;5114599;28;20449;-58
2021/06/18 03:07:47;;;;;;;10.20;9.40;;;;;;;;;;5114846;28;20443;-58
2021/06/18 03:10:17;;;;;;;10.30;9.40;;;;;;;;;;5114417;28;20878;-58
2021/06/18 03:12:45;;;;;;;10.07;9.17;;;;;;;;;;5114753;28;20478;-58
2021/06/18 03:15:13;;;;;;;10.30;9.17;;;;;;;;;;5114613;28;20523;-58
2021/06/18 03:17:42;;;;;;;10.63;9.67;;;;;;;;;;5114298;28;20454;-58
2021/06/18 03:20:11;;;;;;;12.13;9.80;;;;;;;;;;5114527;28;20469;-58
2021/06/18 03:22:38;;;;;;;10.37;9.43;;;;;;;;;;5114563;28;20451;-58
2021/06/18 03:25:07;;;;;;;10.43;9.03;;;;;;;;;;5114078;28;20500;-58
2021/06/18 03:27:36;;;;;;;9.77;8.87;;;;;;;;;;5114566;28;20435;-58
2021/06/18 03:30:05;;;;;;;10.00;9.00;;;;;;;;;;5114171;28;20978;-58
2021/06/18 03:32:32;;;;;;;10.67;9.57;;;;;;;;;;5114575;28;20503;-59
2021/06/18 03:35:00;;;;;;;9.80;8.90;;;;;;;;;;5114192;28;20543;-59
2021/06/18 03:37:28;;;;;;;11.80;9.10;;;;;;;;;;5114390;28;20877;-59
2021/06/18 03:39:55;;;;;;;11.23;9.70;;;;;;;;;;5114072;28;20472;-59
2021/06/18 03:42:23;;;;;;;9.37;8.20;;;;;;;;;;5114186;28;20508;-57
2021/06/18 03:44:53;;;;;;;10.90;9.80;;;;;;;;;;5115036;28;20438;-59
2021/06/18 03:47:20;;;;;;;11.17;8.57;;;;;;;;;;5115761;28;20452;-58
2021/06/18 03:49:48;;;;;;;9.20;8.33;;;;;;;;;;5114219;28;20468;-58
2021/06/18 03:52:15;;;;;;;9.37;8.40;;;;;;;;;;5114368;28;20448;-59
2021/06/18 03:54:43;;;;;;;9.37;8.40;;;;;;;;;;5113997;28;20480;-58
2021/06/18 03:57:10;;;;;;;9.40;8.23;;;;;;;;;;5113802;28;20441;-57
2021/06/18 03:59:41;;;;;;;9.03;8.20;;;;;;;;;;5113863;28;20461;-58
2021/06/18 04:02:11;;;;;;;9.73;8.13;;;;;;;;;;5114251;28;20505;-58
2021/06/18 04:04:39;;;;;;;9.27;8.37;;;;;;;;;;5114457;28;20449;-58
2021/06/18 04:08:14;;;;;;;9.30;8.50;;;;;;;;;;5132651;27;20908;-58
2021/06/18 04:10:43;;;;;;;8.67;7.77;;;;;;;;;;5132161;28;20480;-57
2021/06/18 04:13:11;;;;;;;9.30;8.50;;;;;;;;;;5132056;27;20437;-58
2021/06/18 04:15:39;;;;;;;9.13;8.43;;;;;;;;;;5131761;27;20512;-59
2021/06/18 04:18:06;;;;;;;9.40;8.43;;;;;;;;;;5132047;27;20514;-58
2021/06/18 04:20:35;;;;;;;8.63;7.83;;;;;;;;;;5131744;27;21013;-58
2021/06/18 04:23:02;;;;;;;11.53;7.90;;;;;;;;;;5134476;27;20470;-59
2021/06/18 04:25:31;;;;;;;8.93;8.13;;;;;;;;;;5134056;27;20466;-58
2021/06/18 04:28:00;;;;;;;10.07;8.50;;;;;;;;;;5133522;27;21049;-58
2021/06/18 04:30:28;;;;;;;8.97;8.27;;;;;;;;;;5132355;27;20875;-58
2021/06/18 04:32:55;;;;;;;9.17;8.33;;;;;;;;;;5131691;27;20930;-59
2021/06/18 04:35:22;;;;;;;9.00;8.10;;;;;;;;;;5131603;27;20947;-57
2021/06/18 04:37:49;;;;;;;9.10;7.67;;;;;;;;;;5131502;27;20499;-59
2021/06/18 04:40:17;;;;;;;8.30;7.60;;;;;;;;;;5152443;22;20474;-54
2021/06/18 04:42:45;;;;;;;9.73;8.60;;;;;;;;;;5090037;28;20449;-55
2021/06/18 04:45:13;;;;;;;8.63;7.83;;;;;;;;;;5089707;28;20449;-53
2021/06/18 04:47:41;;;;;;;9.23;8.33;;;;;;;;;;5089542;28;20482;-53
2021/06/18 04:50:08;;;;;;;10.00;9.03;;;;;;;;;;5089537;28;20467;-54
2021/06/18 04:52:36;;;;;;;11.20;9.07;;;;;;;;;;5089598;28;20444;-55
2021/06/18 04:55:07;;;;;;;10.40;8.20;;;;;;;;;;5089821;28;20536;-55
2021/06/18 04:57:34;;;;;;;9.23;8.43;;;;;;;;;;5089505;28;20433;-56
2021/06/18 05:00:04;;;;;;;10.53;8.00;;;;;;;;;;5089652;28;20510;-54
2021/06/18 05:02:31;;;;;;;9.80;8.80;;;;;;;;;;5089367;28;20935;-55
2021/06/18 05:04:58;;;;;;;13.20;8.60;;;;;;;;;;5089619;28;20442;-54
2021/06/18 05:07:26;;;;;;;8.40;7.47;;;;;;;;;;5089615;28;20880;-54
2021/06/18 05:09:54;;;;;;;9.40;8.17;;;;;;;;;;5089704;28;20496;-54
2021/06/18 05:12:21;;;;;;;11.73;8.93;;;;;;;;;;5089854;28;20500;-55
2021/06/18 05:14:48;;;;;;;14.50;9.10;;;;;;;;;;5089821;28;20517;-55
2021/06/18 05:17:17;;;;;;;11.03;8.17;;;;;;;;;;5090040;28;20442;-56
2021/06/18 05:19:44;;;;;;;9.40;8.33;;;;;;;;;;5075258;28;20545;-55
2021/06/18 05:22:11;;;;;;;9.63;8.50;;;;;;;;;;5075657;28;20446;-55
2021/06/18 05:24:39;;;;;;;10.40;7.53;;;;;;;;;;5076071;28;20498;-55
2021/06/18 05:27:06;;;;;;;8.10;7.27;;;;;;;;;;5075541;28;21000;-55
2021/06/18 05:29:33;;;;;;;8.20;7.40;;;;;;;;;;5075662;28;20863;-55
2021/06/18 05:32:00;;;;;;;10.00;7.50;;;;;;;;;;5075233;28;20520;-56
2021/06/18 05:34:29;;;;;;;9.63;8.37;;;;;;;;;;5075707;28;20835;-55
2021/06/18 05:36:56;;;;;;;13.27;8.00;;;;;;;;;;5075588;28;20857;-54
2021/06/18 05:39:23;;;;;;;12.90;8.83;;;;;;;;;;5075357;28;20446;-54
2021/06/18 05:41:51;;;;;;;12.77;8.33;;;;;;;;;;5075207;28;20470;-54
2021/06/18 05:44:18;;;;;;;9.67;8.77;;;;;;;;;;5075857;28;20453;-55
2021/06/18 05:46:45;;;;;;;9.60;8.63;;;;;;;;;;5074805;28;20566;-55
2021/06/18 05:49:12;;;;;;;10.20;8.93;;;;;;;;;;5075521;28;20454;-54
2021/06/18 05:51:41;;;;;;;9.67;8.90;;;;;;;;;;5075129;28;20459;-54
2021/06/18 05:54:08;;;;;;;13.47;8.80;;;;;;;;;;5075194;28;20446;-56
2021/06/18 05:56:35;;;;;;;8.93;8.13;;;;;;;;;;5074770;28;20498;-55
2021/06/18 05:59:03;;;;;;;9.33;8.33;;;;;;;;;;5074898;28;20510;-56
2021/06/18 06:01:30;;;;;;;9.67;8.77;;;;;;;;;;5074759;28;21040;-56
2021/06/18 06:03:57;;;;;;;9.97;7.87;;;;;;;;;;5074961;28;20441;-55
2021/06/18 06:06:25;;;;;;;8.40;7.63;;;;;;;;;;5074872;28;20448;-55
2021/06/18 06:08:54;;;;;;;14.53;8.43;;;;;;;;;;5074857;28;20931;-54
2021/06/18 06:11:21;;;;;;;10.23;9.07;;;;;;;;;;5075633;28;20472;-54
2021/06/18 06:13:50;;;;;;;9.70;8.73;;;;;;;;;;5075463;28;20934;-54
2021/06/18 06:16:17;;;;;;;9.77;8.87;;;;;;;;;;5076134;28;20960;-54
2021/06/18 06:18:44;;;;;;;8.87;8.07;;;;;;;;;;5075678;28;20491;-54
2021/06/18 06:21:11;;;;;;;10.03;8.17;;;;;;;;;;5075560;28;20536;-55
2021/06/18 06:23:39;;;;;;;12.00;8.57;;;;;;;;;;5075646;28;20457;-55
2021/06/18 06:26:08;;;;;;;9.03;8.20;;;;;;;;;;5076021;28;20497;-55
2021/06/18 06:28:36;;;;;;;11.53;8.43;;;;;;;;;;5076115;28;20890;-56
2021/06/18 06:31:03;;;;;;;9.97;8.00;;;;;;;;;;5075165;28;21007;-55
2021/06/18 06:33:30;;;;;;;10.40;7.93;;;;;;;;;;5075311;28;20448;-55
2021/06/18 06:35:58;;;;;;;8.63;7.87;;;;;;;;;;5075513;28;20446;-55
2021/06/18 06:38:25;;;;;;;8.87;7.63;;;;;;;;;;5074823;28;20924;-55
2021/06/18 06:40:52;;;;;;;7.77;7.07;;;;;;;;;;5075258;28;20486;-55
2021/06/18 06:43:21;;;;;;;8.73;7.80;;;;;;;;;;5075333;28;20440;-54
2021/06/18 06:45:48;;;;;;;8.90;8.10;;;;;;;;;;5074473;28;20445;-54
2021/06/18 06:48:15;;;;;;;8.70;7.80;;;;;;;;;;5074722;28;20479;-53
2021/06/18 06:50:43;;;;;;;8.40;7.60;;;;;;;;;;5074920;28;20519;-55
2021/06/18 06:53:10;;;;;;;10.60;7.70;;;;;;;;;;5074691;28;20497;-55
2021/06/18 06:55:37;;;;;;;8.30;7.60;;;;;;;;;;5074590;28;20445;-52
2021/06/18 06:58:05;;;;;;;9.00;6.80;;;;;;;;;;5074913;28;20434;-54
2021/06/18 07:00:34;;;;;;;11.03;7.00;;;;;;;;;;5074299;28;20490;-54
2021/06/18 07:03:01;;;;;;;7.90;6.73;;;;;;;;;;5073718;28;20440;-54
2021/06/18 07:05:29;;;;;;;10.47;6.80;;;;;;;;;;5074100;28;20445;-53
2021/06/18 07:07:56;;;;;;;8.20;7.50;;;;;;;;;;5074536;28;20531;-54
2021/06/18 07:10:24;;;;;;;8.07;7.33;;;;;;;;;;5075075;28;20461;-54
2021/06/18 07:12:51;;;;;;;8.27;7.13;;;;;;;;;;5074525;28;20457;-54
2021/06/18 07:15:18;;;;;;;7.63;6.63;;;;;;;;;;5074009;28;20442;-54
2021/06/18 07:17:47;;;;;;;7.80;7.10;;;;;;;;;;5073971;28;20500;-55
2021/06/18 07:20:14;;;;;;;9.20;6.73;;;;;;;;;;5073557;28;20461;-56
2021/06/18 07:22:42;;;;;;;9.20;7.03;;;;;;;;;;5073661;28;20872;-54
2021/06/18 07:25:09;;;;;;;8.77;7.20;;;;;;;;;;5073740;28;20572;-54
2021/06/18 07:27:37;;;;;;;10.27;6.97;;;;;;;;;;5073946;28;20507;-54
2021/06/18 07:30:04;;;;;;;9.33;7.20;;;;;;;;;;5074095;28;20474;-54
2021/06/18 07:32:31;;;;;;;8.63;6.90;;;;;;;;;;5074197;28;20447;-54
2021/06/18 07:35:00;;;;;;;8.10;6.87;;;;;;;;;;5074463;28;20442;-56
2021/06/18 07:37:27;;;;;;;10.17;7.50;;;;;;;;;;5073494;28;20498;-55
2021/06/18 07:39:54;;;;;;;9.10;7.80;;;;;;;;;;5073614;28;20592;-54
2021/06/18 07:42:22;;;;;;;8.10;7.40;;;;;;;;;;5074363;28;20430;-54
2021/06/18 07:44:49;;;;;;;11.73;7.93;;;;;;;;;;5076079;28;20451;-54
2021/06/18 07:47:16;;;;;;;7.87;7.17;;;;;;;;;;5074486;28;20485;-54
2021/06/18 07:49:44;;;;;;;7.87;7.27;;;;;;;;;;5073504;28;20454;-55
2021/06/18 07:52:12;;;;;;;8.37;7.27;;;;;;;;;;5073428;28;20517;-55
2021/06/18 07:54:39;;;;;;;7.40;6.70;;;;;;;;;;5073364;28;20513;-54
2021/06/18 07:57:07;;;;;;;10.03;7.53;;;;;;;;;;5072889;28;20444;-54
2021/06/18 07:59:34;;;;;;;9.77;8.87;;;;;;;;;;5072521;28;20452;-55
2021/06/18 08:02:01;;;;;;;7.60;6.80;;;;;;;;;;5072531;28;20468;-52
2021/06/18 08:04:28;;;;;;;8.63;7.00;;;;;;;;;;5072434;28;21009;-55
2021/06/18 08:06:56;;;;;;;22.10;9.87;;;;;;;;;;5072339;28;20500;-54
2021/06/18 08:09:24;;;;;;;7.97;7.17;;;;;;;;;;5072772;28;20475;-54
2021/06/18 08:11:52;;;;;;;9.43;7.80;;;;;;;;;;5072527;28;20560;-54
2021/06/18 08:14:19;;;;;;;9.13;8.10;;;;;;;;;;5072940;28;20563;-52
2021/06/18 08:16:46;;;;;;;10.37;8.00;;;;;;;;;;5072826;28;20454;-55
2021/06/18 08:19:14;;;;;;;7.73;7.13;;;;;;;;;;5072556;28;20748;-54
2021/06/18 08:21:41;;;;;;;8.93;8.13;;;;;;;;;;5072500;28;20468;-55
2021/06/18 08:24:09;;;;;;;8.23;7.37;;;;;;;;;;5072507;28;20450;-54
2021/06/18 08:26:37;;;;;;;8.47;7.13;;;;;;;;;;5072380;28;20492;-55
2021/06/18 08:29:04;;;;;;;8.50;7.77;;;;;;;;;;5071972;28;20476;-55
2021/06/18 08:31:32;;;;;;;11.03;7.20;;;;;;;;;;5072593;28;20538;-55
2021/06/18 08:34:00;;;;;;;11.50;8.10;;;;;;;;;;5072578;28;20872;-54
2021/06/18 08:36:27;;;;;;;8.70;7.80;;;;;;;;;;5072485;28;20449;-53
2021/06/18 08:38:55;;;;;;;7.87;7.20;;;;;;;;;;5072653;28;20491;-54
2021/06/18 08:41:22;;;;;;;7.83;7.00;;;;;;;;;;5072146;28;20486;-54
2021/06/18 08:43:51;;;;;;;8.53;7.70;;;;;;;;;;5072422;28;20454;-54
2021/06/18 08:46:18;;;;;;;10.40;7.30;;;;;;;;;;5071945;28;20468;-54
2021/06/18 08:48:47;;;;;;;7.17;6.57;;;;;;;;;;5072399;28;20857;-54
2021/06/18 08:51:15;;;;;;;7.67;7.07;;;;;;;;;;5072407;28;20479;-55
2021/06/18 08:53:43;;;;;;;7.00;6.40;;;;;;;;;;5074167;28;20816;-55
2021/06/18 08:56:10;;;;;;;17.80;7.43;;;;;;;;;;5075975;28;20514;-55
2021/06/18 08:58:38;;;;;;;7.33;6.73;;;;;;;;;;5075935;28;20884;-55
2021/06/18 09:01:07;;;;;;;8.40;7.60;;;;;;;;;;5076204;28;20523;-55
2021/06/18 09:03:43;;;;;;;7.83;6.93;;;;;;;;;;5076130;28;20523;-55
2021/06/18 09:06:26;;;;;;;8.37;7.60;;;;;;;;;;5076023;28;20507;-55
2021/06/18 09:09:16;;;;;;;7.77;7.03;;;;;;;;;;5075769;28;20485;-55
2021/06/18 09:11:44;;;;;;;7.90;7.30;;;;;;;;;;5075854;28;20472;-54
2021/06/18 09:14:31;;;;;;;7.93;7.33;;;;;;;;;;5075579;28;20934;-54
2021/06/18 09:17:10;;;;;;;7.83;6.63;;;;;;;;;;5075667;28;20439;-55
2021/06/18 09:19:38;;;;;;;8.03;7.37;;;;;;;;;;5075758;28;20421;-56
2021/06/18 09:22:06;;;;;;;8.60;7.20;;;;;;;;;;5075956;28;20500;-54
2021/06/18 09:24:34;;;;;;;8.40;7.60;;;;;;;;;;5075329;28;20993;-54
2021/06/18 09:27:01;;;;;;;8.07;7.43;;;;;;;;;;5075581;28;20847;-54
2021/06/18 09:29:30;;;;;;;8.43;7.83;;;;;;;;;;5075245;28;20611;-54
2021/06/18 09:31:59;;;;;;;7.90;7.30;;;;;;;;;;5075399;28;20466;-54
2021/06/18 09:34:38;;;;;;;8.23;7.50;;;;;;;;;;5075579;28;20499;-54
2021/06/18 09:37:31;;;;;;;7.67;6.50;;;;;;;;;;5075487;28;20434;-56
2021/06/18 09:40:08;;;;;;;9.27;7.23;;;;;;;;;;5052217;28;20501;-54
2021/06/18 09:42:36;;;;;;;8.33;7.07;;;;;;;;;;5076169;28;20472;-55
2021/06/18 09:45:06;;;;;;;7.33;6.63;;;;;;;;;;5076191;28;20835;-55
2021/06/18 09:47:34;;;;;;;6.93;6.33;;;;;;;;;;5075322;28;20484;-55
2021/06/18 09:50:03;;;;;;;6.80;6.27;;;;;;;;;;5075104;28;20881;-55
2021/06/18 09:52:31;;;;;;;10.07;6.57;;;;;;;;;;5074997;28;20435;-54
2021/06/18 09:54:58;;;;;;;7.13;6.60;;;;;;;;;;5074718;28;20797;-55
2021/06/18 09:57:36;;;;;;;8.10;5.80;;;;;;;;;;5074883;28;20453;-55
2021/06/18 10:00:05;;;;;;;7.63;6.83;;;;;;;;;;5075083;28;20462;-54
2021/06/18 10:02:42;;;;;;;7.40;6.70;;;;;;;;;;5075046;28;20447;-55
2021/06/18 10:05:13;;;;;;;6.97;5.90;;;;;;;;;;5074505;28;20994;-55
2021/06/18 10:07:41;;;;;;;6.90;6.20;;;;;;;;;;5074769;28;20848;-54
2021/06/18 10:10:09;;;;;;;7.13;6.43;;;;;;;;;;5074515;28;20979;-56
2021/06/18 10:12:37;;;;;;;6.07;5.57;;;;;;;;;;5074716;28;20545;-55
2021/06/18 10:15:07;;;;;;;9.33;5.60;;;;;;;;;;5074460;28;20455;-55
2021/06/18 10:17:36;;;;;;;6.90;6.13;;;;;;;;;;5074450;28;20428;-55
2021/06/18 10:20:05;;;;;;;8.23;6.10;;;;;;;;;;5074109;28;20455;-55
2021/06/18 10:22:34;;;;;;;5.37;4.97;;;;;;;;;;5074603;28;20447;-56
2021/06/18 10:25:03;;;;;;;5.83;5.40;;;;;;;;;;5074599;28;20442;-55
2021/06/18 10:27:33;;;;;;;6.00;5.60;;;;;;;;;;5074430;28;20447;-53
2021/06/18 10:30:00;;;;;;;8.27;6.00;;;;;;;;;;5074246;28;20486;-55
2021/06/18 10:32:31;;;;;;;5.13;4.10;;;;;;;;;;5074134;28;20496;-55
2021/06/18 10:35:00;;;;;;;5.63;5.13;;;;;;;;;;5074476;28;20522;-55
2021/06/18 10:37:29;;;;;;;6.10;5.50;;;;;;;;;;5074882;28;20446;-55
2021/06/18 10:39:58;;;;;;;5.73;5.03;;;;;;;;;;5074645;28;20447;-55
2021/06/18 10:42:26;;;;;;;6.60;6.07;;;;;;;;;;5096316;22;20491;-62
2021/06/18 10:44:54;;;;;;;7.03;6.43;;;;;;;;;;5074184;28;20524;-58
2021/06/18 10:47:43;;;;;;;6.97;6.27;;;;;;;;;;5073597;28;20451;-59
2021/06/18 10:50:12;;;;;;;6.70;6.10;;;;;;;;;;5073780;28;20990;-60
2021/06/18 10:52:40;;;;;;;8.53;6.47;;;;;;;;;;5073510;28;20997;-59
2021/06/18 10:55:10;;;;;;;6.50;6.00;;;;;;;;;;5073904;28;20447;-61
2021/06/18 10:57:51;;;;;;;6.30;5.70;;;;;;;;;;5073836;28;20449;-60
2021/06/18 11:00:22;;;;;;;7.10;5.80;;;;;;;;;;5073914;28;20966;-58
2021/06/18 11:02:49;;;;;;;6.07;5.57;;;;;;;;;;5074258;28;20463;-60
2021/06/18 11:05:38;;;;;;;6.30;5.83;;;;;;;;;;5074283;28;20496;-60
2021/06/18 11:08:29;;;;;;;6.70;6.20;;;;;;;;;;5073996;28;20435;-60
2021/06/18 11:11:00;;;;;;;6.20;5.80;;;;;;;;;;5074311;28;20447;-59
2021/06/18 11:13:28;;;;;;;13.53;6.40;;;;;;;;;;5074238;28;20427;-60
2021/06/18 11:15:56;;;;;;;6.40;5.80;;;;;;;;;;5073909;28;20439;-60
2021/06/18 11:18:32;;;;;;;5.73;5.23;;;;;;;;;;5073879;28;20443;-61
2021/06/18 11:21:00;;;;;;;8.30;4.70;;;;;;;;;;5074066;28;20453;-61
2021/06/18 11:23:29;;;;;;;6.03;5.00;;;;;;;;;;5073568;28;20576;-60
2021/06/18 11:25:58;;;;;;;5.67;5.20;;;;;;;;;;5073516;28;20496;-61
2021/06/18 11:28:42;;;;;;;6.27;5.33;;;;;;;;;;5073167;28;20479;-61
2021/06/18 11:31:12;;;;;;;4.80;4.50;;;;;;;;;;5072901;28;20775;-59
2021/06/18 11:33:51;;;;;;;5.67;4.93;;;;;;;;;;5073278;28;20447;-61
2021/06/18 11:36:49;;;;;;;5.03;4.63;;;;;;;;;;5072963;28;20453;-60
2021/06/18 11:39:18;;;;;;;7.47;5.50;;;;;;;;;;5073103;28;20427;-60
2021/06/18 11:41:49;;;;;;;6.90;5.90;;;;;;;;;;5072706;28;20986;-61
2021/06/18 11:44:20;;;;;;;5.60;5.20;;;;;;;;;;5073281;28;20553;-61
2021/06/18 11:46:49;;;;;;;6.90;6.20;;;;;;;;;;5072921;28;20431;-61
2021/06/18 11:49:18;;;;;;;14.10;12.80;;;;;;;;;;5072842;28;20514;-60
2021/06/18 11:51:46;;;;;;;10.17;9.30;;;;;;;;;;5072711;28;20467;-61
2021/06/18 11:54:21;;;;;;;7.40;6.70;;;;;;;;;;5072987;28;20450;-61
2021/06/18 11:56:50;;;;;;;8.00;7.30;;;;;;;;;;5073328;28;20492;-60
2021/06/18 11:59:17;;;;;;;8.63;7.00;;;;;;;;;;5073062;28;20862;-58
2021/06/18 12:01:44;;;;;;;8.27;7.67;;;;;;;;;;5074132;28;20528;-61
2021/06/18 12:04:16;;;;;;;8.20;7.50;;;;;;;;;;5072854;28;20461;-61
2021/06/18 12:06:43;;;;;;;7.80;7.30;;;;;;;;;;5073071;28;20622;-61
2021/06/18 12:09:13;;;;;;;9.40;8.40;;;;;;;;;;5072820;28;20528;-60
2021/06/18 12:11:41;;;;;;;8.43;7.63;;;;;;;;;;5072787;28;20467;-61
2021/06/18 12:14:11;;;;;;;8.40;7.80;;;;;;;;;;5072598;28;20957;-60
2021/06/18 12:16:39;;;;;;;9.20;8.30;;;;;;;;;;5072903;28;20447;-59
2021/06/18 12:19:18;;;;;;;8.37;7.50;;;;;;;;;;5072523;28;20493;-61
2021/06/18 12:21:57;;;;;;;7.70;7.20;;;;;;;;;;5072547;28;20899;-61
2021/06/18 12:24:27;;;;;;;8.10;7.40;;;;;;;;;;5072938;28;20462;-59
2021/06/18 12:26:54;;;;;;;7.60;7.10;;;;;;;;;;5073178;28;20492;-62
2021/06/18 12:29:23;;;;;;;8.27;7.57;;;;;;;;;;5075427;28;20474;-59
2021/06/18 12:31:50;;;;;;;11.27;7.13;;;;;;;;;;5076844;28;20462;-61
2021/06/18 12:34:17;;;;;;;7.50;6.90;;;;;;;;;;5077075;28;20926;-60
2021/06/18 12:36:44;;;;;;;8.80;7.50;;;;;;;;;;5077771;28;20520;-61
2021/06/18 12:39:12;;;;;;;7.47;6.77;;;;;;;;;;5076887;28;20493;-60
2021/06/18 12:41:40;;;;;;;8.00;7.30;;;;;;;;;;5076740;28;20891;-61
2021/06/18 12:44:08;;;;;;;8.13;7.47;;;;;;;;;;5076639;28;20447;-60
2021/06/18 12:46:37;;;;;;;9.33;7.87;;;;;;;;;;5075594;28;20447;-61
2021/06/18 12:49:07;;;;;;;8.20;6.70;;;;;;;;;;5075712;28;20528;-60
2021/06/18 12:51:35;;;;;;;8.73;8.13;;;;;;;;;;5075834;28;20490;-59
2021/06/18 12:54:03;;;;;;;8.40;7.40;;;;;;;;;;5076242;28;20454;-61
2021/06/18 12:56:33;;;;;;;7.50;7.00;;;;;;;;;;5075954;28;20996;-61
2021/06/18 12:59:09;;;;;;;7.77;7.27;;;;;;;;;;5075995;28;20496;-61
2021/06/18 13:01:39;;;;;;;9.63;8.83;;;;;;;;;;5076096;28;20466;-60
2021/06/18 13:04:07;;;;;;;9.50;8.70;;;;;;;;;;5075636;28;20462;-61
2021/06/18 13:06:42;;;;;;;8.53;7.30;;;;;;;;;;5075910;28;20455;-58
2021/06/18 13:09:09;;;;;;;6.57;6.07;;;;;;;;;;5075782;28;20471;-60
2021/06/18 13:11:37;;;;;;;6.90;6.03;;;;;;;;;;5077104;28;20467;-61
2021/06/18 13:14:09;;;;;;;8.50;7.70;;;;;;;;;;5076152;28;20500;-60
2021/06/18 13:16:36;;;;;;;7.20;6.47;;;;;;;;;;5076153;28;20447;-59
2021/06/18 13:19:05;;;;;;;7.03;6.33;;;;;;;;;;5076196;28;20997;-61
2021/06/18 13:21:43;;;;;;;6.87;6.37;;;;;;;;;;5076731;28;20471;-60
2021/06/18 13:24:11;;;;;;;7.43;6.57;;;;;;;;;;5076438;28;20447;-60
2021/06/18 13:26:38;;;;;;;7.70;7.07;;;;;;;;;;5076956;28;20447;-60
2021/06/18 13:29:10;;;;;;;7.10;6.47;;;;;;;;;;5076055;28;20471;-60
2021/06/18 13:31:38;;;;;;;7.43;6.30;;;;;;;;;;5076147;28;20673;-60
2021/06/18 13:34:08;;;;;;;7.30;6.77;;;;;;;;;;5075595;28;20455;-62
2021/06/18 13:36:36;;;;;;;7.50;6.87;;;;;;;;;;5076377;28;20997;-61
2021/06/18 13:39:10;;;;;;;6.77;6.17;;;;;;;;;;5080813;28;20447;-61
2021/06/18 13:41:38;;;;;;;6.67;6.03;;;;;;;;;;5080027;28;20505;-61
2021/06/18 13:44:06;;;;;;;8.27;6.10;;;;;;;;;;5076380;28;20961;-60
2021/06/18 13:46:33;;;;;;;7.70;6.77;;;;;;;;;;5076761;28;21005;-60
2021/06/18 13:49:00;;;;;;;7.30;6.53;;;;;;;;;;5076853;28;20866;-60
2021/06/18 13:51:29;;;;;;;7.60;6.50;;;;;;;;;;5077537;28;20975;-60
2021/06/18 13:53:58;;;;;;;12.40;6.47;;;;;;;;;;5075772;28;20450;-60
2021/06/18 13:56:25;;;;;;;7.23;6.63;;;;;;;;;;5075367;28;20451;-61
2021/06/18 13:58:53;;;;;;;6.97;6.47;;;;;;;;;;5075479;28;20443;-59
2021/06/18 14:01:20;;;;;;;8.13;7.43;;;;;;;;;;5075849;28;20505;-60
2021/06/18 14:03:47;;;;;;;7.43;6.73;;;;;;;;;;5075498;28;20995;-60
2021/06/18 14:06:15;;;;;;;7.57;6.87;;;;;;;;;;5074925;28;20504;-60
2021/06/18 14:08:43;;;;;;;6.77;6.03;;;;;;;;;;5075116;28;20447;-59
2021/06/18 14:11:14;;;;;;;7.50;6.80;;;;;;;;;;5074545;28;20475;-59
2021/06/18 14:13:41;;;;;;;6.63;6.13;;;;;;;;;;5074784;28;20435;-60
2021/06/18 14:16:09;;;;;;;7.87;7.13;;;;;;;;;;5074604;28;20446;-60
2021/06/18 14:18:36;;;;;;;7.10;6.53;;;;;;;;;;5075042;28;20447;-59
2021/06/18 14:21:04;;;;;;;7.30;6.70;;;;;;;;;;5075162;28;20516;-61
2021/06/18 14:23:32;;;;;;;7.67;7.03;;;;;;;;;;5074958;28;20443;-60
2021/06/18 14:26:00;;;;;;;7.33;6.83;;;;;;;;;;5075511;28;20485;-61
2021/06/18 14:28:28;;;;;;;7.20;6.60;;;;;;;;;;5074278;28;20497;-61
2021/06/18 14:30:55;;;;;;;7.47;6.80;;;;;;;;;;5074133;28;20478;-60
2021/06/18 14:33:22;;;;;;;7.70;6.87;;;;;;;;;;5074443;28;20463;-60
2021/06/18 14:35:50;;;;;;;7.33;6.47;;;;;;;;;;5074106;28;20496;-61
2021/06/18 14:38:17;;;;;;;9.53;6.63;;;;;;;;;;5074127;28;20454;-61
2021/06/18 14:40:45;;;;;;;7.97;7.17;;;;;;;;;;5073984;28;20454;-61
2021/06/18 14:43:13;;;;;;;8.23;6.73;;;;;;;;;;5073849;28;20538;-61
2021/06/18 14:45:41;;;;;;;8.00;6.40;;;;;;;;;;5073904;28;20926;-59
2021/06/18 14:48:08;;;;;;;7.20;6.60;;;;;;;;;;5075018;28;20455;-60
2021/06/18 14:50:35;;;;;;;8.53;6.50;;;;;;;;;;5074050;28;20478;-59